sensor_id;sensor_type;location;lat;lon;timestamp;pressure;altitude;pressure_sealevel;temperature;humidity
1480;BME280;732;51.698;4.886;2023-05-09T00:00:02;101896.03;;;11.81;72.24
1480;BME280;732;51.698;4.886;2023-05-09T00:02:41;101910.47;;;11.64;72.92
1480;BME280;732;51.698;4.886;2023-05-09T00:05:14;101921.78;;;11.84;72.62
1480;BME280;732;51.698;4.886;2023-05-09T00:08:00;101909.69;;;11.88;72.35
1480;BME280;732;51.698;4.886;2023-05-09T00:10:42;101905.50;;;11.94;72.45
1480;BME280;732;51.698;4.886;2023-05-09T00:13:19;101909.94;;;11.68;72.94
1480;BME280;732;51.698;4.886;2023-05-09T00:15:52;101893.97;;;11.67;72.74
1480;BME280;732;51.698;4.886;2023-05-09T00:18:27;101898.88;;;11.80;72.44
1480;BME280;732;51.698;4.886;2023-05-09T00:20:59;101889.25;;;11.61;72.93
1480;BME280;732;51.698;4.886;2023-05-09T00:23:29;101901.56;;;11.80;72.50
1480;BME280;732;51.698;4.886;2023-05-09T00:26:02;101887.97;;;11.81;72.54
1480;BME280;732;51.698;4.886;2023-05-09T00:28:34;101890.19;;;11.86;72.24
1480;BME280;732;51.698;4.886;2023-05-09T00:31:05;101884.13;;;11.92;71.92
1480;BME280;732;51.698;4.886;2023-05-09T00:33:40;101879.22;;;11.79;72.25
1480;BME280;732;51.698;4.886;2023-05-09T00:36:12;101881.75;;;11.73;72.51
1480;BME280;732;51.698;4.886;2023-05-09T00:38:45;101876.69;;;11.69;72.74
1480;BME280;732;51.698;4.886;2023-05-09T00:41:22;101875.50;;;11.72;72.56
1480;BME280;732;51.698;4.886;2023-05-09T00:43:53;101854.00;;;11.64;72.53
1480;BME280;732;51.698;4.886;2023-05-09T00:46:24;101851.47;;;11.62;72.72
1480;BME280;732;51.698;4.886;2023-05-09T00:48:54;101862.56;;;11.76;72.21
1480;BME280;732;51.698;4.886;2023-05-09T00:51:26;101847.59;;;11.65;72.58
1480;BME280;732;51.698;4.886;2023-05-09T00:53:58;101863.25;;;11.78;72.49
1480;BME280;732;51.698;4.886;2023-05-09T00:56:47;101859.56;;;11.79;72.28
1480;BME280;732;51.698;4.886;2023-05-09T00:59:18;101857.53;;;11.81;72.02
1480;BME280;732;51.698;4.886;2023-05-09T01:01:57;101846.66;;;11.82;72.18
1480;BME280;732;51.698;4.886;2023-05-09T01:04:27;101845.09;;;11.80;72.17
1480;BME280;732;51.698;4.886;2023-05-09T01:07:03;101829.63;;;11.65;72.00
1480;BME280;732;51.698;4.886;2023-05-09T01:09:49;101838.88;;;11.63;72.48
1480;BME280;732;51.698;4.886;2023-05-09T01:12:33;101834.66;;;11.68;72.86
1480;BME280;732;51.698;4.886;2023-05-09T01:15:12;101825.78;;;11.68;72.20
1480;BME280;732;51.698;4.886;2023-05-09T01:17:56;101818.22;;;11.72;71.87
1480;BME280;732;51.698;4.886;2023-05-09T01:20:37;101793.66;;;11.58;72.14
1480;BME280;732;51.698;4.886;2023-05-09T01:26:43;101796.38;;;11.66;72.20
1480;BME280;732;51.698;4.886;2023-05-09T01:29:35;101812.66;;;11.73;72.65
1480;BME280;732;51.698;4.886;2023-05-09T01:32:12;101772.69;;;11.62;72.54
1480;BME280;732;51.698;4.886;2023-05-09T01:34:43;101790.16;;;11.58;73.09
1480;BME280;732;51.698;4.886;2023-05-09T01:37:13;101781.72;;;11.52;73.03
1480;BME280;732;51.698;4.886;2023-05-09T01:39:47;101802.41;;;11.60;73.17
1480;BME280;732;51.698;4.886;2023-05-09T01:42:24;101791.16;;;11.65;73.11
1480;BME280;732;51.698;4.886;2023-05-09T01:44:58;101787.13;;;11.61;72.84
1480;BME280;732;51.698;4.886;2023-05-09T01:47:29;101794.84;;;11.72;72.86
1480;BME280;732;51.698;4.886;2023-05-09T01:50:14;101791.47;;;11.70;72.70
1480;BME280;732;51.698;4.886;2023-05-09T01:52:47;101772.84;;;11.52;72.77
1480;BME280;732;51.698;4.886;2023-05-09T01:55:29;101768.13;;;11.46;73.16
1480;BME280;732;51.698;4.886;2023-05-09T01:57:58;101784.41;;;11.52;73.07
1480;BME280;732;51.698;4.886;2023-05-09T02:00:34;101774.84;;;11.58;72.76
1480;BME280;732;51.698;4.886;2023-05-09T02:03:06;101732.31;;;11.29;73.37
1480;BME280;732;51.698;4.886;2023-05-09T02:05:38;101762.78;;;11.54;73.26
1480;BME280;732;51.698;4.886;2023-05-09T02:08:09;101777.38;;;11.68;72.97
1480;BME280;732;51.698;4.886;2023-05-09T02:10:41;101778.91;;;11.71;72.93
1480;BME280;732;51.698;4.886;2023-05-09T02:13:14;101776.38;;;11.61;73.26
1480;BME280;732;51.698;4.886;2023-05-09T02:15:51;101775.38;;;11.62;73.25
1480;BME280;732;51.698;4.886;2023-05-09T02:18:20;101778.38;;;11.67;73.34
1480;BME280;732;51.698;4.886;2023-05-09T02:20:51;101768.66;;;11.58;73.00
1480;BME280;732;51.698;4.886;2023-05-09T02:23:26;101762.44;;;11.65;72.85
1480;BME280;732;51.698;4.886;2023-05-09T02:25:58;101776.91;;;11.73;72.50
1480;BME280;732;51.698;4.886;2023-05-09T02:28:37;101757.88;;;11.66;72.79
1480;BME280;732;51.698;4.886;2023-05-09T02:31:11;101744.47;;;11.58;72.82
1480;BME280;732;51.698;4.886;2023-05-09T02:33:44;101763.75;;;11.61;73.59
1480;BME280;732;51.698;4.886;2023-05-09T02:36:25;101757.88;;;11.66;73.50
1480;BME280;732;51.698;4.886;2023-05-09T02:38:53;101750.50;;;11.68;73.45
1480;BME280;732;51.698;4.886;2023-05-09T02:41:22;101748.13;;;11.65;73.29
1480;BME280;732;51.698;4.886;2023-05-09T02:43:50;101747.13;;;11.66;72.90
1480;BME280;732;51.698;4.886;2023-05-09T02:46:22;101748.66;;;11.68;73.27
1480;BME280;732;51.698;4.886;2023-05-09T02:48:52;101744.81;;;11.63;73.26
1480;BME280;732;51.698;4.886;2023-05-09T02:51:20;101730.00;;;11.50;73.47
1480;BME280;732;51.698;4.886;2023-05-09T02:56:34;101735.03;;;11.62;73.25
1480;BME280;732;51.698;4.886;2023-05-09T02:59:02;101722.13;;;11.65;73.10
1480;BME280;732;51.698;4.886;2023-05-09T03:01:37;101709.00;;;11.54;73.27
1480;BME280;732;51.698;4.886;2023-05-09T03:04:05;101691.53;;;11.42;73.33
1480;BME280;732;51.698;4.886;2023-05-09T03:06:39;101717.22;;;11.61;73.59
1480;BME280;732;51.698;4.886;2023-05-09T03:09:07;101716.41;;;11.60;73.44
1480;BME280;732;51.698;4.886;2023-05-09T03:11:36;101682.63;;;11.41;73.86
1480;BME280;732;51.698;4.886;2023-05-09T03:14:04;101714.38;;;11.62;73.55
1480;BME280;732;51.698;4.886;2023-05-09T03:16:38;101713.03;;;11.66;73.08
1480;BME280;732;51.698;4.886;2023-05-09T03:19:15;101708.16;;;11.70;73.23
1480;BME280;732;51.698;4.886;2023-05-09T03:21:43;101708.31;;;11.68;73.17
1480;BME280;732;51.698;4.886;2023-05-09T03:24:12;101709.81;;;11.71;73.12
1480;BME280;732;51.698;4.886;2023-05-09T03:26:40;101705.13;;;11.73;72.73
1480;BME280;732;51.698;4.886;2023-05-09T03:29:08;101691.88;;;11.72;73.11
1480;BME280;732;51.698;4.886;2023-05-09T03:31:42;101693.19;;;11.67;73.05
1480;BME280;732;51.698;4.886;2023-05-09T03:34:10;101684.47;;;11.65;72.95
1480;BME280;732;51.698;4.886;2023-05-09T03:36:42;101685.81;;;11.69;72.92
1480;BME280;732;51.698;4.886;2023-05-09T03:39:18;101680.94;;;11.65;73.11
1480;BME280;732;51.698;4.886;2023-05-09T03:41:49;101686.50;;;11.72;72.68
1480;BME280;732;51.698;4.886;2023-05-09T03:44:26;101682.13;;;11.71;72.89
1480;BME280;732;51.698;4.886;2023-05-09T03:46:58;101677.91;;;11.60;73.31
1480;BME280;732;51.698;4.886;2023-05-09T03:49:33;101631.75;;;11.31;73.55
1480;BME280;732;51.698;4.886;2023-05-09T03:52:02;101629.72;;;11.33;73.59
1480;BME280;732;51.698;4.886;2023-05-09T03:54:32;101668.03;;;11.60;73.48
1480;BME280;732;51.698;4.886;2023-05-09T03:57:00;101652.03;;;11.59;74.03
1480;BME280;732;51.698;4.886;2023-05-09T03:59:29;101660.78;;;11.69;73.92
1480;BME280;732;51.698;4.886;2023-05-09T04:02:00;101656.41;;;11.68;73.79
1480;BME280;732;51.698;4.886;2023-05-09T04:04:34;101653.91;;;11.66;73.64
1480;BME280;732;51.698;4.886;2023-05-09T04:07:03;101668.31;;;11.74;73.42
1480;BME280;732;51.698;4.886;2023-05-09T04:09:34;101662.97;;;11.65;73.65
1480;BME280;732;51.698;4.886;2023-05-09T04:12:09;101667.00;;;11.69;73.40
1480;BME280;732;51.698;4.886;2023-05-09T04:14:43;101654.38;;;11.70;73.68
1480;BME280;732;51.698;4.886;2023-05-09T04:17:18;101638.97;;;11.64;73.71
1480;BME280;732;51.698;4.886;2023-05-09T04:19:47;101652.88;;;11.76;73.34
1480;BME280;732;51.698;4.886;2023-05-09T04:22:15;101650.38;;;11.82;73.48
1480;BME280;732;51.698;4.886;2023-05-09T04:24:43;101635.75;;;11.77;73.44
1480;BME280;732;51.698;4.886;2023-05-09T04:27:22;101645.81;;;11.91;73.41
1480;BME280;732;51.698;4.886;2023-05-09T04:29:55;101643.47;;;11.96;73.32
1480;BME280;732;51.698;4.886;2023-05-09T04:32:30;101649.50;;;11.98;73.50
1480;BME280;732;51.698;4.886;2023-05-09T04:34:59;101638.78;;;11.90;73.58
1480;BME280;732;51.698;4.886;2023-05-09T04:37:36;101638.78;;;11.90;73.57
1480;BME280;732;51.698;4.886;2023-05-09T04:40:06;101640.59;;;11.98;73.59
1480;BME280;732;51.698;4.886;2023-05-09T04:42:44;101646.59;;;12.16;73.09
1480;BME280;732;51.698;4.886;2023-05-09T04:45:12;101633.09;;;12.25;73.04
1480;BME280;732;51.698;4.886;2023-05-09T04:47:44;101593.78;;;12.15;73.05
1480;BME280;732;51.698;4.886;2023-05-09T04:50:12;101578.94;;;12.28;72.64
1480;BME280;732;51.698;4.886;2023-05-09T04:52:40;101610.31;;;12.67;72.27
1480;BME280;732;51.698;4.886;2023-05-09T04:55:09;101581.44;;;12.61;72.07
1480;BME280;732;51.698;4.886;2023-05-09T04:57:42;101611.44;;;12.81;71.78
1480;BME280;732;51.698;4.886;2023-05-09T05:00:14;101611.56;;;12.88;71.54
1480;BME280;732;51.698;4.886;2023-05-09T05:02:47;101606.00;;;12.66;71.94
1480;BME280;732;51.698;4.886;2023-05-09T05:05:18;101601.44;;;12.66;71.83
1480;BME280;732;51.698;4.886;2023-05-09T05:07:51;101598.44;;;12.61;71.82
1480;BME280;732;51.698;4.886;2023-05-09T05:10:23;101571.78;;;12.43;72.21
1480;BME280;732;51.698;4.886;2023-05-09T05:12:59;101571.06;;;12.49;71.84
1480;BME280;732;51.698;4.886;2023-05-09T05:15:28;101589.50;;;12.61;71.80
1480;BME280;732;51.698;4.886;2023-05-09T05:17:58;101587.47;;;12.63;72.03
1480;BME280;732;51.698;4.886;2023-05-09T05:20:33;101576.94;;;12.53;72.00
1480;BME280;732;51.698;4.886;2023-05-09T05:23:02;101587.38;;;12.56;72.02
1480;BME280;732;51.698;4.886;2023-05-09T05:25:30;101592.81;;;12.40;72.67
1480;BME280;732;51.698;4.886;2023-05-09T05:28:00;101584.13;;;12.29;72.64
1480;BME280;732;51.698;4.886;2023-05-09T05:30:28;101546.56;;;12.13;72.78
1480;BME280;732;51.698;4.886;2023-05-09T05:33:02;101581.13;;;12.32;72.71
1480;BME280;732;51.698;4.886;2023-05-09T05:35:33;101577.25;;;12.27;72.91
1480;BME280;732;51.698;4.886;2023-05-09T05:38:02;101573.25;;;12.23;73.32
1480;BME280;732;51.698;4.886;2023-05-09T05:40:30;101566.50;;;12.27;73.17
1480;BME280;732;51.698;4.886;2023-05-09T05:43:02;101572.38;;;12.30;73.30
1480;BME280;732;51.698;4.886;2023-05-09T05:45:32;101563.13;;;12.25;73.41
1480;BME280;732;51.698;4.886;2023-05-09T05:48:06;101569.50;;;12.32;73.62
1480;BME280;732;51.698;4.886;2023-05-09T05:50:37;101576.38;;;12.34;73.47
1480;BME280;732;51.698;4.886;2023-05-09T05:53:05;101548.69;;;11.86;74.89
1480;BME280;732;51.698;4.886;2023-05-09T05:55:37;101558.59;;;11.94;75.09
1480;BME280;732;51.698;4.886;2023-05-09T05:58:05;101560.22;;;12.03;75.03
1480;BME280;732;51.698;4.886;2023-05-09T06:00:34;101565.22;;;12.14;75.03
1480;BME280;732;51.698;4.886;2023-05-09T06:03:08;101560.81;;;12.22;74.65
1480;BME280;732;51.698;4.886;2023-05-09T06:05:46;101565.72;;;12.10;74.97
1480;BME280;732;51.698;4.886;2023-05-09T06:08:15;101561.03;;;12.12;74.78
1480;BME280;732;51.698;4.886;2023-05-09T06:10:43;101532.72;;;11.93;75.21
1480;BME280;732;51.698;4.886;2023-05-09T06:13:12;101546.06;;;12.09;75.03
1480;BME280;732;51.698;4.886;2023-05-09T06:15:46;101551.34;;;12.26;75.00
1480;BME280;732;51.698;4.886;2023-05-09T06:18:16;101544.34;;;12.16;75.14
1480;BME280;732;51.698;4.886;2023-05-09T06:20:50;101549.16;;;12.29;75.18
1480;BME280;732;51.698;4.886;2023-05-09T06:23:18;101552.28;;;12.10;75.35
1480;BME280;732;51.698;4.886;2023-05-09T06:25:48;101534.84;;;11.97;75.64
1480;BME280;732;51.698;4.886;2023-05-09T06:28:16;101545.47;;;11.91;76.24
1480;BME280;732;51.698;4.886;2023-05-09T06:30:45;101548.28;;;11.97;76.34
1480;BME280;732;51.698;4.886;2023-05-09T06:33:13;101521.34;;;11.66;76.67
1480;BME280;732;51.698;4.886;2023-05-09T06:35:43;101525.19;;;11.72;76.82
1480;BME280;732;51.698;4.886;2023-05-09T06:38:11;101514.41;;;11.80;76.69
1480;BME280;732;51.698;4.886;2023-05-09T06:40:42;101519.03;;;11.55;77.42
1480;BME280;732;51.698;4.886;2023-05-09T06:43:12;101526.91;;;11.64;77.27
1480;BME280;732;51.698;4.886;2023-05-09T06:45:40;101522.41;;;11.48;77.87
1480;BME280;732;51.698;4.886;2023-05-09T06:48:20;101517.94;;;11.08;79.30
1480;BME280;732;51.698;4.886;2023-05-09T06:51:00;101517.97;;;10.99;79.94
1480;BME280;732;51.698;4.886;2023-05-09T06:53:41;101537.88;;;11.30;79.53
1480;BME280;732;51.698;4.886;2023-05-09T06:56:30;101519.09;;;11.30;79.45
1480;BME280;732;51.698;4.886;2023-05-09T06:58:59;101530.31;;;11.42;78.96
1480;BME280;732;51.698;4.886;2023-05-09T07:01:29;101480.66;;;11.29;78.94
1480;BME280;732;51.698;4.886;2023-05-09T07:03:57;101498.34;;;11.55;78.56
1480;BME280;732;51.698;4.886;2023-05-09T07:06:29;101466.34;;;11.37;79.07
1480;BME280;732;51.698;4.886;2023-05-09T07:09:00;101518.75;;;11.81;78.58
1480;BME280;732;51.698;4.886;2023-05-09T07:11:36;101515.19;;;11.97;78.32
1480;BME280;732;51.698;4.886;2023-05-09T07:14:06;101503.84;;;12.10;78.20
1480;BME280;732;51.698;4.886;2023-05-09T07:16:37;101473.88;;;11.90;78.01
1480;BME280;732;51.698;4.886;2023-05-09T07:19:05;101499.34;;;12.10;78.14
1480;BME280;732;51.698;4.886;2023-05-09T07:21:37;101501.97;;;12.18;77.68
1480;BME280;732;51.698;4.886;2023-05-09T07:24:10;101481.63;;;12.16;77.84
1480;BME280;732;51.698;4.886;2023-05-09T07:26:38;101486.16;;;12.24;77.72
1480;BME280;732;51.698;4.886;2023-05-09T07:29:12;101471.78;;;12.08;77.89
1480;BME280;732;51.698;4.886;2023-05-09T07:31:40;101484.47;;;12.23;77.90
1480;BME280;732;51.698;4.886;2023-05-09T07:34:17;101460.00;;;12.09;77.64
1480;BME280;732;51.698;4.886;2023-05-09T07:37:08;101482.06;;;12.28;78.05
1480;BME280;732;51.698;4.886;2023-05-09T07:39:41;101448.63;;;12.22;77.85
1480;BME280;732;51.698;4.886;2023-05-09T07:42:14;101479.44;;;12.43;77.84
1480;BME280;732;51.698;4.886;2023-05-09T07:44:47;101473.75;;;12.61;77.53
1480;BME280;732;51.698;4.886;2023-05-09T07:47:15;101469.03;;;12.40;77.60
1480;BME280;732;51.698;4.886;2023-05-09T07:50:21;101468.09;;;12.32;77.73
1480;BME280;732;51.698;4.886;2023-05-09T07:52:42;101473.22;;;12.19;78.52
1480;BME280;732;51.698;4.886;2023-05-09T07:55:12;101450.72;;;12.12;78.37
1480;BME280;732;51.698;4.886;2023-05-09T07:57:42;101458.19;;;12.01;78.79
1480;BME280;732;51.698;4.886;2023-05-09T08:00:18;101457.31;;;12.09;78.71
1480;BME280;732;51.698;4.886;2023-05-09T08:02:50;101451.53;;;11.89;79.15
1480;BME280;732;51.698;4.886;2023-05-09T08:05:21;101448.19;;;11.87;79.09
1480;BME280;732;51.698;4.886;2023-05-09T08:07:54;101434.97;;;12.09;78.69
1480;BME280;732;51.698;4.886;2023-05-09T08:10:25;101427.94;;;11.99;79.17
1480;BME280;732;51.698;4.886;2023-05-09T08:12:56;101437.41;;;12.18;78.74
1480;BME280;732;51.698;4.886;2023-05-09T08:15:28;101428.97;;;12.22;78.77
1480;BME280;732;51.698;4.886;2023-05-09T08:17:57;101429.41;;;12.10;78.65
1480;BME280;732;51.698;4.886;2023-05-09T08:20:26;101402.63;;;11.94;78.74
1480;BME280;732;51.698;4.886;2023-05-09T08:23:01;101425.50;;;12.13;78.91
1480;BME280;732;51.698;4.886;2023-05-09T08:25:30;101416.00;;;12.25;78.83
1480;BME280;732;51.698;4.886;2023-05-09T08:27:58;101414.28;;;12.32;78.71
1480;BME280;732;51.698;4.886;2023-05-09T08:30:27;101413.00;;;12.43;78.59
1480;BME280;732;51.698;4.886;2023-05-09T08:33:00;101409.63;;;12.64;78.09
1480;BME280;732;51.698;4.886;2023-05-09T08:35:30;101414.56;;;12.76;77.76
1480;BME280;732;51.698;4.886;2023-05-09T08:38:03;101404.53;;;12.85;77.57
1480;BME280;732;51.698;4.886;2023-05-09T08:40:39;101389.50;;;12.37;77.40
1480;BME280;732;51.698;4.886;2023-05-09T08:43:12;101383.69;;;12.10;77.93
1480;BME280;732;51.698;4.886;2023-05-09T08:45:49;101394.31;;;12.27;77.88
1480;BME280;732;51.698;4.886;2023-05-09T08:48:22;101399.28;;;12.53;78.25
1480;BME280;732;51.698;4.886;2023-05-09T08:50:57;101381.19;;;12.62;77.93
1480;BME280;732;51.698;4.886;2023-05-09T08:53:33;101390.41;;;12.68;78.17
1480;BME280;732;51.698;4.886;2023-05-09T08:56:05;101388.75;;;12.81;77.64
1480;BME280;732;51.698;4.886;2023-05-09T08:58:34;101383.34;;;13.05;77.52
1480;BME280;732;51.698;4.886;2023-05-09T09:01:04;101378.97;;;13.04;77.33
1480;BME280;732;51.698;4.886;2023-05-09T09:03:33;101376.06;;;13.05;77.20
1480;BME280;732;51.698;4.886;2023-05-09T09:06:09;101355.25;;;12.99;76.97
1480;BME280;732;51.698;4.886;2023-05-09T09:08:42;101383.75;;;12.93;76.07
1480;BME280;732;51.698;4.886;2023-05-09T09:11:17;101378.34;;;12.78;77.22
1480;BME280;732;51.698;4.886;2023-05-09T09:13:52;101370.66;;;12.90;77.19
1480;BME280;732;51.698;4.886;2023-05-09T09:16:24;101373.91;;;12.86;77.52
1480;BME280;732;51.698;4.886;2023-05-09T09:19:03;101361.66;;;12.98;77.48
1480;BME280;732;51.698;4.886;2023-05-09T09:21:35;101368.69;;;12.84;77.74
1480;BME280;732;51.698;4.886;2023-05-09T09:24:12;101369.56;;;13.00;77.91
1480;BME280;732;51.698;4.886;2023-05-09T09:26:47;101327.88;;;12.95;77.68
1480;BME280;732;51.698;4.886;2023-05-09T09:29:19;101339.28;;;12.97;77.61
1480;BME280;732;51.698;4.886;2023-05-09T09:31:52;101358.97;;;12.98;77.70
1480;BME280;732;51.698;4.886;2023-05-09T09:34:22;101361.47;;;13.00;77.76
1480;BME280;732;51.698;4.886;2023-05-09T09:36:55;101356.66;;;12.95;78.11
1480;BME280;732;51.698;4.886;2023-05-09T09:39:32;101320.06;;;13.01;77.65
1480;BME280;732;51.698;4.886;2023-05-09T09:42:12;101343.06;;;13.18;77.65
1480;BME280;732;51.698;4.886;2023-05-09T09:44:42;101330.06;;;12.77;77.03
1480;BME280;732;51.698;4.886;2023-05-09T09:47:13;101353.31;;;12.93;77.88
1480;BME280;732;51.698;4.886;2023-05-09T09:49:50;101350.25;;;13.11;77.73
1480;BME280;732;51.698;4.886;2023-05-09T09:52:28;101355.81;;;13.09;77.81
1480;BME280;732;51.698;4.886;2023-05-09T09:55:07;101347.38;;;12.97;77.42
1480;BME280;732;51.698;4.886;2023-05-09T09:57:40;101340.03;;;13.06;78.26
1480;BME280;732;51.698;4.886;2023-05-09T10:00:20;101341.03;;;13.20;77.94
1480;BME280;732;51.698;4.886;2023-05-09T10:02:53;101318.00;;;13.18;77.46
1480;BME280;732;51.698;4.886;2023-05-09T10:05:24;101314.16;;;13.27;77.24
1480;BME280;732;51.698;4.886;2023-05-09T10:07:58;101330.44;;;13.19;77.86
1480;BME280;732;51.698;4.886;2023-05-09T10:10:36;101334.63;;;13.21;77.44
1480;BME280;732;51.698;4.886;2023-05-09T10:13:12;101331.22;;;12.97;78.06
1480;BME280;732;51.698;4.886;2023-05-09T10:15:50;101330.00;;;13.00;78.17
1480;BME280;732;51.698;4.886;2023-05-09T10:18:24;101314.09;;;12.90;77.98
1480;BME280;732;51.698;4.886;2023-05-09T10:20:56;101304.28;;;12.68;78.46
1480;BME280;732;51.698;4.886;2023-05-09T10:23:30;101298.59;;;12.47;78.90
1480;BME280;732;51.698;4.886;2023-05-09T10:26:15;101320.41;;;12.68;79.37
1480;BME280;732;51.698;4.886;2023-05-09T10:28:46;101323.44;;;12.49;79.47
1480;BME280;732;51.698;4.886;2023-05-09T10:31:24;101318.81;;;12.58;79.58
1480;BME280;732;51.698;4.886;2023-05-09T10:33:53;101305.47;;;12.50;79.03
1480;BME280;732;51.698;4.886;2023-05-09T10:36:24;101320.22;;;12.54;79.00
1480;BME280;732;51.698;4.886;2023-05-09T10:38:57;101305.09;;;12.53;79.55
1480;BME280;732;51.698;4.886;2023-05-09T10:41:37;101219.94;;;12.07;79.17
1480;BME280;732;51.698;4.886;2023-05-09T10:44:12;101301.09;;;12.79;79.18
1480;BME280;732;51.698;4.886;2023-05-09T10:46:48;101300.09;;;12.80;78.72
1480;BME280;732;51.698;4.886;2023-05-09T10:49:20;101283.94;;;12.80;78.91
1480;BME280;732;51.698;4.886;2023-05-09T10:51:53;101293.09;;;12.71;78.82
1480;BME280;732;51.698;4.886;2023-05-09T10:54:36;101293.50;;;12.68;79.12
1480;BME280;732;51.698;4.886;2023-05-09T10:57:08;101290.63;;;12.69;79.07
1480;BME280;732;51.698;4.886;2023-05-09T10:59:41;101281.25;;;12.65;79.05
1480;BME280;732;51.698;4.886;2023-05-09T11:02:12;101288.38;;;12.88;78.60
1480;BME280;732;51.698;4.886;2023-05-09T11:04:46;101280.97;;;12.90;78.60
1480;BME280;732;51.698;4.886;2023-05-09T11:07:25;101284.22;;;13.00;78.90
1480;BME280;732;51.698;4.886;2023-05-09T11:10:09;101269.16;;;12.61;78.43
1480;BME280;732;51.698;4.886;2023-05-09T11:12:59;101248.69;;;12.45;79.84
1480;BME280;732;51.698;4.886;2023-05-09T11:15:31;101271.38;;;12.57;79.16
1480;BME280;732;51.698;4.886;2023-05-09T11:18:12;101273.91;;;12.44;79.41
1480;BME280;732;51.698;4.886;2023-05-09T11:20:47;101265.56;;;12.54;80.00
1480;BME280;732;51.698;4.886;2023-05-09T11:23:34;101254.22;;;12.73;79.67
1480;BME280;732;51.698;4.886;2023-05-09T11:26:06;101260.19;;;12.54;79.22
1480;BME280;732;51.698;4.886;2023-05-09T11:28:37;101257.03;;;12.65;80.18
1480;BME280;732;51.698;4.886;2023-05-09T11:31:13;101258.69;;;12.81;79.80
1480;BME280;732;51.698;4.886;2023-05-09T11:33:43;101246.72;;;12.69;79.38
1480;BME280;732;51.698;4.886;2023-05-09T11:36:20;101233.91;;;12.56;79.28
1480;BME280;732;51.698;4.886;2023-05-09T11:39:04;101258.22;;;12.62;79.63
1480;BME280;732;51.698;4.886;2023-05-09T11:41:41;101248.81;;;12.88;79.38
1480;BME280;732;51.698;4.886;2023-05-09T11:44:25;101237.88;;;12.75;78.74
1480;BME280;732;51.698;4.886;2023-05-09T11:46:56;101238.13;;;13.10;78.56
1480;BME280;732;51.698;4.886;2023-05-09T11:49:28;101211.50;;;13.22;78.78
1480;BME280;732;51.698;4.886;2023-05-09T11:51:59;101239.28;;;13.66;78.21
1480;BME280;732;51.698;4.886;2023-05-09T11:54:28;101234.41;;;13.76;77.60
1480;BME280;732;51.698;4.886;2023-05-09T11:56:57;101218.97;;;13.91;77.54
1480;BME280;732;51.698;4.886;2023-05-09T11:59:32;101220.13;;;14.04;76.91
1480;BME280;732;51.698;4.886;2023-05-09T12:02:03;101220.34;;;14.02;76.30
1480;BME280;732;51.698;4.886;2023-05-09T12:04:35;101218.22;;;13.98;75.95
1480;BME280;732;51.698;4.886;2023-05-09T12:07:06;101217.03;;;13.57;76.45
1480;BME280;732;51.698;4.886;2023-05-09T12:09:54;101211.13;;;13.46;77.23
1480;BME280;732;51.698;4.886;2023-05-09T12:12:22;101222.75;;;13.47;77.42
1480;BME280;732;51.698;4.886;2023-05-09T12:14:52;101219.22;;;13.25;78.30
1480;BME280;732;51.698;4.886;2023-05-09T12:17:25;101207.78;;;13.01;78.60
1480;BME280;732;51.698;4.886;2023-05-09T12:19:58;101210.13;;;12.74;78.88
1480;BME280;732;51.698;4.886;2023-05-09T12:22:27;101215.16;;;12.62;79.10
1480;BME280;732;51.698;4.886;2023-05-09T12:24:57;101213.22;;;12.56;79.10
1480;BME280;732;51.698;4.886;2023-05-09T12:27:27;101170.72;;;12.07;78.75
1480;BME280;732;51.698;4.886;2023-05-09T12:30:00;101212.09;;;12.21;79.43
1480;BME280;732;51.698;4.886;2023-05-09T12:32:31;101199.84;;;11.80;79.54
1480;BME280;732;51.698;4.886;2023-05-09T12:34:59;101184.31;;;11.52;81.14
1480;BME280;732;51.698;4.886;2023-05-09T12:37:30;101209.91;;;11.86;81.36
1480;BME280;732;51.698;4.886;2023-05-09T12:40:04;101200.97;;;12.09;80.69
1480;BME280;732;51.698;4.886;2023-05-09T12:42:37;101202.59;;;12.10;80.34
1480;BME280;732;51.698;4.886;2023-05-09T12:45:13;101181.75;;;11.97;80.62
1480;BME280;732;51.698;4.886;2023-05-09T12:47:48;101208.75;;;12.18;80.71
1480;BME280;732;51.698;4.886;2023-05-09T12:50:30;101182.88;;;12.32;80.80
1480;BME280;732;51.698;4.886;2023-05-09T12:53:03;101204.22;;;12.49;80.00
1480;BME280;732;51.698;4.886;2023-05-09T12:55:38;101190.75;;;12.64;79.83
1480;BME280;732;51.698;4.886;2023-05-09T12:58:19;101188.97;;;12.71;79.94
1480;BME280;732;51.698;4.886;2023-05-09T13:00:56;101189.22;;;12.91;79.25
1480;BME280;732;51.698;4.886;2023-05-09T13:03:27;101192.50;;;13.08;78.65
1480;BME280;732;51.698;4.886;2023-05-09T13:06:00;101177.38;;;13.29;77.81
1480;BME280;732;51.698;4.886;2023-05-09T13:08:34;101174.38;;;13.17;77.80
1480;BME280;732;51.698;4.886;2023-05-09T13:11:03;101156.47;;;13.09;78.32
1480;BME280;732;51.698;4.886;2023-05-09T13:13:49;101169.88;;;13.03;78.06
1480;BME280;732;51.698;4.886;2023-05-09T13:16:18;101184.97;;;13.19;77.70
1480;BME280;732;51.698;4.886;2023-05-09T13:18:50;101181.88;;;13.22;77.64
1480;BME280;732;51.698;4.886;2023-05-09T13:21:19;101175.91;;;13.26;77.25
1480;BME280;732;51.698;4.886;2023-05-09T13:23:52;101180.31;;;12.61;78.19
1480;BME280;732;51.698;4.886;2023-05-09T13:26:22;101178.06;;;12.79;78.95
1480;BME280;732;51.698;4.886;2023-05-09T13:28:50;101166.47;;;12.94;78.50
1480;BME280;732;51.698;4.886;2023-05-09T13:31:23;101164.91;;;12.70;78.84
1480;BME280;732;51.698;4.886;2023-05-09T13:33:53;101170.03;;;12.64;79.07
1480;BME280;732;51.698;4.886;2023-05-09T13:36:31;101144.41;;;12.69;79.48
1480;BME280;732;51.698;4.886;2023-05-09T13:38:59;101154.94;;;12.85;78.93
1480;BME280;732;51.698;4.886;2023-05-09T13:41:33;101163.22;;;12.84;78.32
1480;BME280;732;51.698;4.886;2023-05-09T13:44:05;101154.56;;;12.52;79.81
1480;BME280;732;51.698;4.886;2023-05-09T13:46:37;101158.72;;;12.54;79.63
1480;BME280;732;51.698;4.886;2023-05-09T13:49:11;101155.31;;;12.45;79.63
1480;BME280;732;51.698;4.886;2023-05-09T13:51:42;101166.81;;;12.39;79.15
1480;BME280;732;51.698;4.886;2023-05-09T13:54:11;101152.44;;;12.17;79.47
1480;BME280;732;51.698;4.886;2023-05-09T13:56:42;101163.94;;;12.11;80.42
1480;BME280;732;51.698;4.886;2023-05-09T13:59:11;101157.84;;;11.64;80.31